L'Assomption, Canada
Current Conditions -  °F | °C
As of 1:00 PM on Thursday 29 Jan 2015 (Local Time) from CYHU Reporting Station
Clear Clear  
Wind Chill:   Ceiling: Unl
Heat Index: 19°   Visibility: 9mi
Dew Point:   Wind: 8mph
Humidity: 46%   Direction: 110°ESE
Pressure: 30.1"   Gusts: NA
Location:  45.82°N, 73.43°W
Report Text: CYHU 291800Z AUTO 11007KT 9SM CLR M07/M17 A3010 RMK SLP194
Loading
Personal Weather Stations






























Interactive Weather Map New forecast layout! Learn more

10-Day Weather Forecast

Advertisements
Track Severe Weather on mobile